sensor_id;sensor_type;location;lat;lon;timestamp;pressure;altitude;pressure_sealevel;temperature;humidity
59103;BME280;43999;51.660;5.616;2023-07-16T00:00:22;100701.63;;;16.82;100.00
59103;BME280;43999;51.660;5.616;2023-07-16T00:02:53;100691.53;;;16.76;100.00
59103;BME280;43999;51.660;5.616;2023-07-16T00:05:21;100705.03;;;16.73;100.00
59103;BME280;43999;51.660;5.616;2023-07-16T00:07:49;100695.06;;;16.65;100.00
59103;BME280;43999;51.660;5.616;2023-07-16T00:10:17;100699.88;;;16.60;100.00
59103;BME280;43999;51.660;5.616;2023-07-16T00:12:44;100705.53;;;16.56;100.00
59103;BME280;43999;51.660;5.616;2023-07-16T00:15:12;100700.38;;;16.54;100.00
59103;BME280;43999;51.660;5.616;2023-07-16T00:17:39;100702.44;;;16.51;100.00
59103;BME280;43999;51.660;5.616;2023-07-16T00:20:07;100712.44;;;16.47;100.00
59103;BME280;43999;51.660;5.616;2023-07-16T00:22:36;100709.06;;;16.45;100.00
59103;BME280;43999;51.660;5.616;2023-07-16T00:25:07;100717.13;;;16.43;100.00
59103;BME280;43999;51.660;5.616;2023-07-16T00:27:35;100713.06;;;16.39;100.00
59103;BME280;43999;51.660;5.616;2023-07-16T00:30:03;100711.50;;;16.37;100.00
59103;BME280;43999;51.660;5.616;2023-07-16T00:32:31;100709.78;;;16.36;100.00
59103;BME280;43999;51.660;5.616;2023-07-16T00:34:59;100713.56;;;16.33;100.00
59103;BME280;43999;51.660;5.616;2023-07-16T00:37:27;100711.16;;;16.30;100.00
59103;BME280;43999;51.660;5.616;2023-07-16T00:39:55;100720.16;;;16.27;100.00
59103;BME280;43999;51.660;5.616;2023-07-16T00:42:22;100708.38;;;16.20;100.00
59103;BME280;43999;51.660;5.616;2023-07-16T00:44:51;100712.13;;;16.18;100.00
59103;BME280;43999;51.660;5.616;2023-07-16T00:47:18;100723.91;;;16.13;100.00
59103;BME280;43999;51.660;5.616;2023-07-16T00:49:47;100715.25;;;16.11;100.00
59103;BME280;43999;51.660;5.616;2023-07-16T00:52:18;100719.81;;;16.09;100.00
59103;BME280;43999;51.660;5.616;2023-07-16T00:54:49;100716.44;;;16.07;100.00
59103;BME280;43999;51.660;5.616;2023-07-16T00:57:17;100707.06;;;16.03;100.00
59103;BME280;43999;51.660;5.616;2023-07-16T00:59:45;100719.22;;;16.06;100.00
59103;BME280;43999;51.660;5.616;2023-07-16T01:02:12;100721.28;;;16.02;100.00
59103;BME280;43999;51.660;5.616;2023-07-16T01:04:40;100710.94;;;15.99;100.00
59103;BME280;43999;51.660;5.616;2023-07-16T01:07:11;100715.25;;;16.00;100.00
59103;BME280;43999;51.660;5.616;2023-07-16T01:09:43;100719.13;;;15.96;100.00
59103;BME280;43999;51.660;5.616;2023-07-16T01:12:13;100716.72;;;15.93;100.00
59103;BME280;43999;51.660;5.616;2023-07-16T01:14:41;100711.03;;;15.86;100.00
59103;BME280;43999;51.660;5.616;2023-07-16T01:17:09;100711.16;;;15.85;100.00
59103;BME280;43999;51.660;5.616;2023-07-16T01:19:36;100722.13;;;15.80;100.00
59103;BME280;43999;51.660;5.616;2023-07-16T01:28:48;100713.44;;;15.67;100.00
59103;BME280;43999;51.660;5.616;2023-07-16T01:31:27;100705.75;;;15.64;100.00
59103;BME280;43999;51.660;5.616;2023-07-16T01:33:56;100694.69;;;15.58;100.00
59103;BME280;43999;51.660;5.616;2023-07-16T01:36:26;100705.38;;;15.57;100.00
59103;BME280;43999;51.660;5.616;2023-07-16T01:38:55;100708.13;;;15.55;100.00
59103;BME280;43999;51.660;5.616;2023-07-16T01:41:23;100704.88;;;15.52;100.00
59103;BME280;43999;51.660;5.616;2023-07-16T01:43:54;100711.00;;;15.52;100.00
59103;BME280;43999;51.660;5.616;2023-07-16T01:46:21;100705.09;;;15.49;100.00
59103;BME280;43999;51.660;5.616;2023-07-16T01:48:49;100705.00;;;15.50;100.00
59103;BME280;43999;51.660;5.616;2023-07-16T01:51:17;100700.69;;;15.49;100.00
59103;BME280;43999;51.660;5.616;2023-07-16T01:53:45;100705.09;;;15.49;100.00
59103;BME280;43999;51.660;5.616;2023-07-16T01:56:13;100706.09;;;15.48;100.00
59103;BME280;43999;51.660;5.616;2023-07-16T01:58:41;100713.03;;;15.49;100.00
59103;BME280;43999;51.660;5.616;2023-07-16T02:01:09;100704.50;;;15.45;100.00
59103;BME280;43999;51.660;5.616;2023-07-16T02:03:36;100703.69;;;15.45;100.00
59103;BME280;43999;51.660;5.616;2023-07-16T02:06:04;100707.03;;;15.47;100.00
59103;BME280;43999;51.660;5.616;2023-07-16T02:08:33;100694.91;;;15.44;100.00
59103;BME280;43999;51.660;5.616;2023-07-16T02:11:01;100696.34;;;15.48;100.00
59103;BME280;43999;51.660;5.616;2023-07-16T02:13:28;100706.19;;;15.46;100.00
59103;BME280;43999;51.660;5.616;2023-07-16T02:15:55;100709.78;;;15.45;100.00
59103;BME280;43999;51.660;5.616;2023-07-16T02:18:23;100706.44;;;15.43;100.00
59103;BME280;43999;51.660;5.616;2023-07-16T02:20:50;100713.38;;;15.44;100.00
59103;BME280;43999;51.660;5.616;2023-07-16T02:23:18;100715.31;;;15.42;100.00
59103;BME280;43999;51.660;5.616;2023-07-16T02:25:45;100710.03;;;15.42;100.00
59103;BME280;43999;51.660;5.616;2023-07-16T02:28:16;100704.03;;;15.40;100.00
59103;BME280;43999;51.660;5.616;2023-07-16T02:30:43;100704.75;;;15.42;100.00
59103;BME280;43999;51.660;5.616;2023-07-16T02:33:11;100710.97;;;15.41;100.00
59103;BME280;43999;51.660;5.616;2023-07-16T02:35:39;100715.31;;;15.42;100.00
59103;BME280;43999;51.660;5.616;2023-07-16T02:38:06;100722.41;;;15.41;100.00
59103;BME280;43999;51.660;5.616;2023-07-16T02:40:34;100722.41;;;15.41;100.00
59103;BME280;43999;51.660;5.616;2023-07-16T02:43:01;100718.06;;;15.40;100.00
59103;BME280;43999;51.660;5.616;2023-07-16T02:45:30;100722.41;;;15.41;100.00
59103;BME280;43999;51.660;5.616;2023-07-16T02:47:57;100726.00;;;15.40;100.00
59103;BME280;43999;51.660;5.616;2023-07-16T02:50:25;100723.22;;;15.42;100.00
59103;BME280;43999;51.660;5.616;2023-07-16T02:52:52;100727.56;;;15.43;100.00
59103;BME280;43999;51.660;5.616;2023-07-16T02:55:20;100741.47;;;15.45;100.00
59103;BME280;43999;51.660;5.616;2023-07-16T02:57:47;100741.47;;;15.45;100.00
59103;BME280;43999;51.660;5.616;2023-07-16T03:00:15;100740.53;;;15.46;100.00
59103;BME280;43999;51.660;5.616;2023-07-16T03:02:43;100739.78;;;15.44;100.00
59103;BME280;43999;51.660;5.616;2023-07-16T03:05:10;100748.69;;;15.43;100.00
59103;BME280;43999;51.660;5.616;2023-07-16T03:07:38;100734.63;;;15.42;100.00
59103;BME280;43999;51.660;5.616;2023-07-16T03:10:07;100737.25;;;15.42;100.00
59103;BME280;43999;51.660;5.616;2023-07-16T03:12:34;100730.66;;;15.37;100.00
59103;BME280;43999;51.660;5.616;2023-07-16T03:15:02;100741.13;;;15.38;100.00
59103;BME280;43999;51.660;5.616;2023-07-16T03:17:30;100741.13;;;15.38;100.00
59103;BME280;43999;51.660;5.616;2023-07-16T03:19:57;100736.91;;;15.36;100.00
59103;BME280;43999;51.660;5.616;2023-07-16T03:22:25;100744.81;;;15.36;100.00
59103;BME280;43999;51.660;5.616;2023-07-16T03:24:52;100749.25;;;15.35;100.00
59103;BME280;43999;51.660;5.616;2023-07-16T03:27:20;100750.22;;;15.34;100.00
59103;BME280;43999;51.660;5.616;2023-07-16T03:29:56;100751.16;;;15.33;100.00
59103;BME280;43999;51.660;5.616;2023-07-16T03:32:24;100755.72;;;15.31;100.00
59103;BME280;43999;51.660;5.616;2023-07-16T03:35:01;100747.09;;;15.29;100.00
59103;BME280;43999;51.660;5.616;2023-07-16T03:37:28;100759.66;;;15.26;100.00
59103;BME280;43999;51.660;5.616;2023-07-16T03:40:17;100757.00;;;15.26;100.00
59103;BME280;43999;51.660;5.616;2023-07-16T03:42:47;100765.16;;;15.22;100.00
59103;BME280;43999;51.660;5.616;2023-07-16T03:45:14;100768.66;;;15.23;100.00
59103;BME280;43999;51.660;5.616;2023-07-16T03:47:42;100766.13;;;15.21;100.00
59103;BME280;43999;51.660;5.616;2023-07-16T03:50:10;100767.81;;;15.22;100.00
59103;BME280;43999;51.660;5.616;2023-07-16T03:52:37;100772.13;;;15.23;100.00
59103;BME280;43999;51.660;5.616;2023-07-16T03:55:05;100779.22;;;15.23;100.00
59103;BME280;43999;51.660;5.616;2023-07-16T03:57:34;100785.44;;;15.22;100.00
59103;BME280;43999;51.660;5.616;2023-07-16T04:00:03;100783.63;;;15.22;100.00
59103;BME280;43999;51.660;5.616;2023-07-16T04:02:40;100784.63;;;15.21;100.00
59103;BME280;43999;51.660;5.616;2023-07-16T04:05:13;100789.03;;;15.21;100.00
59103;BME280;43999;51.660;5.616;2023-07-16T04:07:41;100797.81;;;15.21;100.00
59103;BME280;43999;51.660;5.616;2023-07-16T04:10:08;100796.22;;;15.19;100.00
59103;BME280;43999;51.660;5.616;2023-07-16T04:12:36;100801.50;;;15.19;100.00
59103;BME280;43999;51.660;5.616;2023-07-16T04:15:08;100795.41;;;15.18;100.00
59103;BME280;43999;51.660;5.616;2023-07-16T04:17:39;100804.38;;;15.16;100.00
59103;BME280;43999;51.660;5.616;2023-07-16T04:20:07;100804.38;;;15.16;100.00
59103;BME280;43999;51.660;5.616;2023-07-16T04:22:35;100821.28;;;15.13;100.00
59103;BME280;43999;51.660;5.616;2023-07-16T04:25:04;100820.44;;;15.13;100.00
59103;BME280;43999;51.660;5.616;2023-07-16T04:27:32;100818.84;;;15.10;100.00
59103;BME280;43999;51.660;5.616;2023-07-16T04:29:59;100829.41;;;15.10;100.00
59103;BME280;43999;51.660;5.616;2023-07-16T04:32:27;100818.97;;;15.09;100.00
59103;BME280;43999;51.660;5.616;2023-07-16T04:34:54;100820.88;;;15.06;100.00
59103;BME280;43999;51.660;5.616;2023-07-16T04:37:22;100816.22;;;15.10;100.00
59103;BME280;43999;51.660;5.616;2023-07-16T04:39:50;100828.59;;;15.10;100.00
59103;BME280;43999;51.660;5.616;2023-07-16T04:42:17;100833.03;;;15.09;100.00
59103;BME280;43999;51.660;5.616;2023-07-16T04:44:45;100834.81;;;15.09;100.00
59103;BME280;43999;51.660;5.616;2023-07-16T04:47:12;100840.84;;;15.11;100.00
59103;BME280;43999;51.660;5.616;2023-07-16T04:49:39;100845.34;;;15.09;100.00
59103;BME280;43999;51.660;5.616;2023-07-16T04:52:07;100851.28;;;15.12;100.00
59103;BME280;43999;51.660;5.616;2023-07-16T04:54:36;100845.13;;;15.12;100.00
59103;BME280;43999;51.660;5.616;2023-07-16T04:57:06;100851.38;;;15.11;100.00
59103;BME280;43999;51.660;5.616;2023-07-16T04:59:35;100850.53;;;15.10;100.00
59103;BME280;43999;51.660;5.616;2023-07-16T05:02:06;100851.28;;;15.12;100.00
59103;BME280;43999;51.660;5.616;2023-07-16T05:04:34;100864.38;;;15.14;100.00
59103;BME280;43999;51.660;5.616;2023-07-16T05:07:03;100865.31;;;15.13;100.00
59103;BME280;43999;51.660;5.616;2023-07-16T05:09:31;100866.03;;;15.15;100.00
59103;BME280;43999;51.660;5.616;2023-07-16T05:11:58;100865.91;;;15.16;100.00
59103;BME280;43999;51.660;5.616;2023-07-16T05:14:27;100859.69;;;15.17;100.00
59103;BME280;43999;51.660;5.616;2023-07-16T05:16:56;100856.22;;;15.17;100.00
59103;BME280;43999;51.660;5.616;2023-07-16T05:19:24;100855.03;;;15.21;100.00
59103;BME280;43999;51.660;5.616;2023-07-16T05:21:51;100859.25;;;15.23;100.00
59103;BME280;43999;51.660;5.616;2023-07-16T05:24:18;100847.00;;;15.22;100.00
59103;BME280;43999;51.660;5.616;2023-07-16T05:26:46;100861.66;;;15.27;100.00
59103;BME280;43999;51.660;5.616;2023-07-16T05:29:14;100857.09;;;15.29;100.00
59103;BME280;43999;51.660;5.616;2023-07-16T05:31:43;100860.50;;;15.31;100.00
59103;BME280;43999;51.660;5.616;2023-07-16T05:34:11;100852.47;;;15.32;100.00
59103;BME280;43999;51.660;5.616;2023-07-16T05:36:41;100867.22;;;15.35;100.00
59103;BME280;43999;51.660;5.616;2023-07-16T05:39:10;100871.44;;;15.37;100.00
59103;BME280;43999;51.660;5.616;2023-07-16T05:41:40;100872.69;;;15.45;100.00
59103;BME280;43999;51.660;5.616;2023-07-16T05:44:08;100878.44;;;15.50;100.00
59103;BME280;43999;51.660;5.616;2023-07-16T05:46:36;100883.28;;;15.56;100.00
59103;BME280;43999;51.660;5.616;2023-07-16T05:49:03;100877.75;;;15.59;100.00
59103;BME280;43999;51.660;5.616;2023-07-16T05:51:31;100881.88;;;15.63;100.00
59103;BME280;43999;51.660;5.616;2023-07-16T05:53:58;100885.94;;;15.67;100.00
59103;BME280;43999;51.660;5.616;2023-07-16T05:56:25;100894.50;;;15.71;100.00
59103;BME280;43999;51.660;5.616;2023-07-16T05:58:53;100886.25;;;15.75;100.00
59103;BME280;43999;51.660;5.616;2023-07-16T06:01:20;100897.44;;;15.79;100.00
59103;BME280;43999;51.660;5.616;2023-07-16T06:03:48;100892.75;;;15.83;100.00
59103;BME280;43999;51.660;5.616;2023-07-16T06:06:15;100889.88;;;15.86;100.00
59103;BME280;43999;51.660;5.616;2023-07-16T06:08:43;100901.81;;;15.91;100.00
59103;BME280;43999;51.660;5.616;2023-07-16T06:11:12;100902.63;;;15.92;100.00
59103;BME280;43999;51.660;5.616;2023-07-16T06:13:40;100896.41;;;15.93;100.00
59103;BME280;43999;51.660;5.616;2023-07-16T06:16:07;100909.88;;;16.01;100.00
59103;BME280;43999;51.660;5.616;2023-07-16T06:18:35;100913.84;;;16.07;100.00
59103;BME280;43999;51.660;5.616;2023-07-16T06:21:02;100904.81;;;16.09;100.00
59103;BME280;43999;51.660;5.616;2023-07-16T06:23:30;100916.03;;;16.13;100.00
59103;BME280;43999;51.660;5.616;2023-07-16T06:25:57;100914.69;;;16.19;100.00
59103;BME280;43999;51.660;5.616;2023-07-16T06:28:25;100918.81;;;16.23;100.00
59103;BME280;43999;51.660;5.616;2023-07-16T06:30:52;100925.44;;;16.28;100.00
59103;BME280;43999;51.660;5.616;2023-07-16T06:33:20;100928.56;;;16.34;100.00
59103;BME280;43999;51.660;5.616;2023-07-16T06:35:48;100928.22;;;16.38;100.00
59103;BME280;43999;51.660;5.616;2023-07-16T06:38:15;100936.63;;;16.43;100.00
59103;BME280;43999;51.660;5.616;2023-07-16T06:40:48;100929.91;;;16.51;100.00
59103;BME280;43999;51.660;5.616;2023-07-16T06:43:17;100928.47;;;16.58;100.00
59103;BME280;43999;51.660;5.616;2023-07-16T06:45:45;100938.06;;;16.59;100.00
59103;BME280;43999;51.660;5.616;2023-07-16T06:48:12;100935.19;;;16.62;100.00
59103;BME280;43999;51.660;5.616;2023-07-16T06:50:40;100948.69;;;16.70;100.00
59103;BME280;43999;51.660;5.616;2023-07-16T06:53:08;100943.88;;;16.75;100.00
59103;BME280;43999;51.660;5.616;2023-07-16T06:55:35;100947.97;;;16.79;100.00
59103;BME280;43999;51.660;5.616;2023-07-16T06:58:03;100940.50;;;16.84;100.00
59103;BME280;43999;51.660;5.616;2023-07-16T07:00:31;100947.28;;;16.89;100.00
59103;BME280;43999;51.660;5.616;2023-07-16T07:02:59;100950.41;;;16.94;100.00
59103;BME280;43999;51.660;5.616;2023-07-16T07:05:26;100951.59;;;17.01;100.00
59103;BME280;43999;51.660;5.616;2023-07-16T07:07:54;100956.28;;;17.09;100.00
59103;BME280;43999;51.660;5.616;2023-07-16T07:10:22;100948.19;;;17.22;100.00
59103;BME280;43999;51.660;5.616;2023-07-16T07:12:49;100964.44;;;17.28;100.00
59103;BME280;43999;51.660;5.616;2023-07-16T07:15:17;100957.81;;;17.34;100.00
59103;BME280;43999;51.660;5.616;2023-07-16T07:17:44;100966.91;;;17.41;100.00
59103;BME280;43999;51.660;5.616;2023-07-16T07:20:13;100964.25;;;17.52;100.00
59103;BME280;43999;51.660;5.616;2023-07-16T07:22:41;100971.72;;;17.59;100.00
59103;BME280;43999;51.660;5.616;2023-07-16T07:25:09;100965.03;;;17.64;100.00
59103;BME280;43999;51.660;5.616;2023-07-16T07:27:36;100977.28;;;17.77;100.00
59103;BME280;43999;51.660;5.616;2023-07-16T07:30:04;100968.84;;;17.83;100.00
59103;BME280;43999;51.660;5.616;2023-07-16T07:32:32;100974.63;;;17.88;100.00
59103;BME280;43999;51.660;5.616;2023-07-16T07:35:00;100978.59;;;17.94;100.00
59103;BME280;43999;51.660;5.616;2023-07-16T07:37:30;100991.47;;;17.98;100.00
59103;BME280;43999;51.660;5.616;2023-07-16T07:39:59;100979.91;;;17.99;100.00
59103;BME280;43999;51.660;5.616;2023-07-16T07:42:26;100976.16;;;18.02;100.00
59103;BME280;43999;51.660;5.616;2023-07-16T07:44:57;100975.66;;;18.08;100.00
59103;BME280;43999;51.660;5.616;2023-07-16T07:47:24;100972.47;;;18.14;100.00
59103;BME280;43999;51.660;5.616;2023-07-16T07:49:53;100982.56;;;18.20;100.00
59103;BME280;43999;51.660;5.616;2023-07-16T07:52:20;100983.19;;;18.34;100.00
59103;BME280;43999;51.660;5.616;2023-07-16T07:54:48;100965.94;;;18.39;100.00
59103;BME280;43999;51.660;5.616;2023-07-16T07:57:16;100989.88;;;18.49;100.00
59103;BME280;43999;51.660;5.616;2023-07-16T07:59:44;100994.13;;;18.61;100.00
59103;BME280;43999;51.660;5.616;2023-07-16T08:02:12;100987.91;;;18.72;100.00
59103;BME280;43999;51.660;5.616;2023-07-16T08:04:39;100983.47;;;18.83;100.00
59103;BME280;43999;51.660;5.616;2023-07-16T08:07:07;100989.94;;;18.90;100.00
59103;BME280;43999;51.660;5.616;2023-07-16T08:09:37;100991.13;;;19.07;100.00
59103;BME280;43999;51.660;5.616;2023-07-16T08:12:05;100988.13;;;19.21;100.00
59103;BME280;43999;51.660;5.616;2023-07-16T08:14:33;101000.34;;;19.43;97.97
59103;BME280;43999;51.660;5.616;2023-07-16T08:17:00;100996.03;;;19.62;98.00
59103;BME280;43999;51.660;5.616;2023-07-16T08:19:28;100994.69;;;19.87;95.67
59103;BME280;43999;51.660;5.616;2023-07-16T08:21:55;100992.31;;;20.13;94.80
59103;BME280;43999;51.660;5.616;2023-07-16T08:24:25;100995.22;;;20.20;92.41
59103;BME280;43999;51.660;5.616;2023-07-16T08:26:53;101000.84;;;20.27;92.16
59103;BME280;43999;51.660;5.616;2023-07-16T08:29:20;101000.69;;;20.38;89.93
59103;BME280;43999;51.660;5.616;2023-07-16T08:31:47;101008.22;;;20.42;90.34
59103;BME280;43999;51.660;5.616;2023-07-16T08:34:15;101008.63;;;20.67;92.21
59103;BME280;43999;51.660;5.616;2023-07-16T08:36:42;101012.53;;;20.73;89.03
59103;BME280;43999;51.660;5.616;2023-07-16T08:39:11;101003.41;;;20.75;89.11
59103;BME280;43999;51.660;5.616;2023-07-16T08:41:39;101006.34;;;20.72;90.95
59103;BME280;43999;51.660;5.616;2023-07-16T08:44:06;101007.56;;;20.88;87.89
59103;BME280;43999;51.660;5.616;2023-07-16T08:46:34;101004.56;;;21.28;89.55
59103;BME280;43999;51.660;5.616;2023-07-16T08:49:03;101006.22;;;21.85;83.26
59103;BME280;43999;51.660;5.616;2023-07-16T08:51:34;101011.16;;;22.16;81.26
59103;BME280;43999;51.660;5.616;2023-07-16T08:54:03;101017.25;;;22.26;80.42
59103;BME280;43999;51.660;5.616;2023-07-16T08:56:31;101011.97;;;22.16;78.03
59103;BME280;43999;51.660;5.616;2023-07-16T08:58:59;101010.22;;;22.07;78.96
59103;BME280;43999;51.660;5.616;2023-07-16T09:01:27;101012.44;;;22.12;80.05
59103;BME280;43999;51.660;5.616;2023-07-16T09:03:55;101017.63;;;22.31;80.61
59103;BME280;43999;51.660;5.616;2023-07-16T09:06:25;101017.13;;;22.54;82.55
59103;BME280;43999;51.660;5.616;2023-07-16T09:08:54;101016.22;;;22.98;74.76
59103;BME280;43999;51.660;5.616;2023-07-16T09:11:22;101022.38;;;23.24;77.08
59103;BME280;43999;51.660;5.616;2023-07-16T09:13:50;101029.31;;;23.52;73.64
59103;BME280;43999;51.660;5.616;2023-07-16T09:16:18;101034.50;;;23.61;74.21
59103;BME280;43999;51.660;5.616;2023-07-16T09:18:47;101027.53;;;23.69;73.60
59103;BME280;43999;51.660;5.616;2023-07-16T09:21:15;101029.13;;;23.45;72.64
59103;BME280;43999;51.660;5.616;2023-07-16T09:23:43;101026.66;;;23.52;73.94
59103;BME280;43999;51.660;5.616;2023-07-16T09:26:11;101035.72;;;23.67;73.60
59103;BME280;43999;51.660;5.616;2023-07-16T09:28:39;101036.19;;;23.62;71.22
59103;BME280;43999;51.660;5.616;2023-07-16T09:31:07;101030.78;;;23.38;69.64
59103;BME280;43999;51.660;5.616;2023-07-16T09:33:35;101035.72;;;23.24;69.54
59103;BME280;43999;51.660;5.616;2023-07-16T09:36:03;101035.78;;;23.06;70.16
59103;BME280;43999;51.660;5.616;2023-07-16T09:38:32;101033.69;;;22.84;71.97
59103;BME280;43999;51.660;5.616;2023-07-16T09:41:03;101037.50;;;22.55;72.85
59103;BME280;43999;51.660;5.616;2023-07-16T09:43:33;101044.59;;;22.28;74.02
59103;BME280;43999;51.660;5.616;2023-07-16T09:46:02;101050.41;;;22.24;75.43
59103;BME280;43999;51.660;5.616;2023-07-16T09:48:30;101045.63;;;22.09;76.63
59103;BME280;43999;51.660;5.616;2023-07-16T09:50:59;101053.16;;;21.96;77.44
59103;BME280;43999;51.660;5.616;2023-07-16T09:53:31;101046.53;;;21.82;76.83
59103;BME280;43999;51.660;5.616;2023-07-16T09:56:00;101054.69;;;21.80;77.07
59103;BME280;43999;51.660;5.616;2023-07-16T09:58:31;101054.59;;;21.72;76.30
59103;BME280;43999;51.660;5.616;2023-07-16T10:01:00;101057.75;;;21.58;75.98
59103;BME280;43999;51.660;5.616;2023-07-16T10:03:30;101061.28;;;21.48;78.13
59103;BME280;43999;51.660;5.616;2023-07-16T10:06:07;101059.50;;;21.39;79.17
59103;BME280;43999;51.660;5.616;2023-07-16T10:08:35;101069.78;;;21.34;78.46
59103;BME280;43999;51.660;5.616;2023-07-16T10:11:03;101068.53;;;21.28;79.29
59103;BME280;43999;51.660;5.616;2023-07-16T10:13:33;101071.19;;;21.28;79.64
59103;BME280;43999;51.660;5.616;2023-07-16T10:16:01;101065.56;;;21.31;79.71
59103;BME280;43999;51.660;5.616;2023-07-16T10:18:30;101082.28;;;21.34;78.90
59103;BME280;43999;51.660;5.616;2023-07-16T10:21:05;101074.66;;;21.39;81.43
59103;BME280;43999;51.660;5.616;2023-07-16T10:23:43;101082.84;;;21.65;83.17
59103;BME280;43999;51.660;5.616;2023-07-16T10:26:15;101093.41;;;21.84;78.54
59103;BME280;43999;51.660;5.616;2023-07-16T10:28:46;101095.94;;;21.86;78.13
59103;BME280;43999;51.660;5.616;2023-07-16T10:31:33;101086.91;;;21.87;78.62
59103;BME280;43999;51.660;5.616;2023-07-16T10:34:03;101107.94;;;21.90;77.78
59103;BME280;43999;51.660;5.616;2023-07-16T10:36:39;101092.09;;;21.89;76.13
59103;BME280;43999;51.660;5.616;2023-07-16T10:39:08;101087.78;;;21.88;76.21
59103;BME280;43999;51.660;5.616;2023-07-16T10:41:35;101107.28;;;21.88;76.70
59103;BME280;43999;51.660;5.616;2023-07-16T10:44:03;101098.13;;;21.91;76.92
59103;BME280;43999;51.660;5.616;2023-07-16T10:46:31;101087.84;;;21.96;77.75
59103;BME280;43999;51.660;5.616;2023-07-16T10:49:01;101094.84;;;22.15;78.48
59103;BME280;43999;51.660;5.616;2023-07-16T10:51:28;101096.03;;;22.48;77.40
59103;BME280;43999;51.660;5.616;2023-07-16T10:53:57;101090.78;;;23.09;76.30
59103;BME280;43999;51.660;5.616;2023-07-16T10:56:25;101092.88;;;23.66;73.14
59103;BME280;43999;51.660;5.616;2023-07-16T10:58:53;101094.50;;;24.10;71.10
59103;BME280;43999;51.660;5.616;2023-07-16T11:01:20;101095.69;;;24.15;69.28
59103;BME280;43999;51.660;5.616;2023-07-16T11:03:48;101092.81;;;24.09;66.66
59103;BME280;43999;51.660;5.616;2023-07-16T11:06:18;101099.06;;;23.75;68.17
59103;BME280;43999;51.660;5.616;2023-07-16T11:08:46;101109.72;;;23.50;69.72
59103;BME280;43999;51.660;5.616;2023-07-16T11:11:14;101105.59;;;23.30;69.41
59103;BME280;43999;51.660;5.616;2023-07-16T11:13:43;101106.75;;;23.01;71.27
59103;BME280;43999;51.660;5.616;2023-07-16T11:16:16;101105.72;;;22.76;71.98
59103;BME280;43999;51.660;5.616;2023-07-16T11:18:44;101108.22;;;22.51;73.43
59103;BME280;43999;51.660;5.616;2023-07-16T11:21:11;101116.41;;;22.31;73.78
59103;BME280;43999;51.660;5.616;2023-07-16T11:23:39;101118.34;;;22.11;73.70
59103;BME280;43999;51.660;5.616;2023-07-16T11:26:07;101120.69;;;21.96;73.97
59103;BME280;43999;51.660;5.616;2023-07-16T11:28:41;101118.63;;;21.90;75.23
59103;BME280;43999;51.660;5.616;2023-07-16T11:31:16;101127.78;;;21.88;74.33
59103;BME280;43999;51.660;5.616;2023-07-16T11:33:46;101125.94;;;21.88;74.29
59103;BME280;43999;51.660;5.616;2023-07-16T11:36:16;101125.66;;;21.91;74.40
59103;BME280;43999;51.660;5.616;2023-07-16T11:38:44;101131.22;;;21.98;74.15
59103;BME280;43999;51.660;5.616;2023-07-16T11:41:12;101135.28;;;22.02;72.53
59103;BME280;43999;51.660;5.616;2023-07-16T11:43:40;101136.66;;;22.06;74.24
59103;BME280;43999;51.660;5.616;2023-07-16T11:46:16;101131.31;;;22.06;74.98
59103;BME280;43999;51.660;5.616;2023-07-16T11:48:45;101142.59;;;22.18;74.75
59103;BME280;43999;51.660;5.616;2023-07-16T11:51:12;101148.13;;;22.34;74.50
59103;BME280;43999;51.660;5.616;2023-07-16T11:53:40;101137.06;;;22.47;72.86
59103;BME280;43999;51.660;5.616;2023-07-16T11:56:07;101141.41;;;22.48;74.01
59103;BME280;43999;51.660;5.616;2023-07-16T11:58:36;101136.59;;;22.52;74.77
59103;BME280;43999;51.660;5.616;2023-07-16T12:01:04;101147.13;;;22.53;74.21
59103;BME280;43999;51.660;5.616;2023-07-16T12:03:31;101150.41;;;22.47;74.90
59103;BME280;43999;51.660;5.616;2023-07-16T12:05:59;101153.03;;;22.39;75.87
59103;BME280;43999;51.660;5.616;2023-07-16T12:08:27;101152.81;;;22.32;75.04
59103;BME280;43999;51.660;5.616;2023-07-16T12:10:54;101149.78;;;22.17;74.43
59103;BME280;43999;51.660;5.616;2023-07-16T12:13:22;101146.09;;;22.00;75.65
59103;BME280;43999;51.660;5.616;2023-07-16T12:15:49;101159.09;;;21.85;77.54
59103;BME280;43999;51.660;5.616;2023-07-16T12:18:17;101160.69;;;21.78;77.62
59103;BME280;43999;51.660;5.616;2023-07-16T12:20:44;101162.78;;;21.75;76.61
59103;BME280;43999;51.660;5.616;2023-07-16T12:23:12;101172.38;;;21.67;77.88
59103;BME280;43999;51.660;5.616;2023-07-16T12:25:39;101169.16;;;21.64;78.51
59103;BME280;43999;51.660;5.616;2023-07-16T12:28:07;101187.72;;;21.56;79.77
59103;BME280;43999;51.660;5.616;2023-07-16T12:30:34;101180.69;;;21.55;80.23
59103;BME280;43999;51.660;5.616;2023-07-16T12:33:02;101179.44;;;21.59;82.04
59103;BME280;43999;51.660;5.616;2023-07-16T12:35:31;101180.09;;;21.71;85.33
59103;BME280;43999;51.660;5.616;2023-07-16T12:37:59;101178.91;;;21.83;85.64
59103;BME280;43999;51.660;5.616;2023-07-16T12:40:29;101171.69;;;21.93;83.83
59103;BME280;43999;51.660;5.616;2023-07-16T12:42:57;101173.31;;;22.04;82.44
59103;BME280;43999;51.660;5.616;2023-07-16T12:45:25;101175.78;;;22.15;80.69
59103;BME280;43999;51.660;5.616;2023-07-16T12:47:52;101169.69;;;22.23;80.70
59103;BME280;43999;51.660;5.616;2023-07-16T12:50:20;101177.50;;;22.34;78.24
59103;BME280;43999;51.660;5.616;2023-07-16T12:52:48;101181.56;;;22.29;77.73
59103;BME280;43999;51.660;5.616;2023-07-16T12:55:15;101184.78;;;22.14;78.20